Time;durP1;ratioP1;P1;durP2;ratioP2;P2;SDS_P1;SDS_P2;PMS_P1;PMS_P2;Temp;Humidity;BMP_temperature;BMP_pressure;BME280_temperature;BME280_humidity;BME280_pressure;Samples;Min_cycle;Max_cycle;Signal;HPM_P1;HPM_P2
2022/04/20 00:00:15;;;;;;;6.00;1.70;;;6.10;91.20;;;;;;5028294;28;20574;-58
2022/04/20 00:02:41;;;;;;;3.13;1.80;;;6.10;88.60;;;;;;5029665;28;20508;-59
2022/04/20 00:05:07;;;;;;;4.13;2.20;;;6.10;88.70;;;;;;5047085;28;20056;-58
2022/04/20 00:07:33;;;;;;;3.75;1.75;;;6.10;90.70;;;;;;5049820;28;20534;-58
2022/04/20 00:09:59;;;;;;;4.97;1.70;;;6.10;90.10;;;;;;5029392;28;20124;-59
2022/04/20 00:12:25;;;;;;;2.90;1.40;;;6.10;87.70;;;;;;5029707;28;20072;-58
2022/04/20 00:14:51;;;;;;;3.92;1.80;;;6.20;87.90;;;;;;5048738;28;20064;-59
2022/04/20 00:17:17;;;;;;;3.05;1.80;;;6.20;86.90;;;;;;5028365;28;20140;-59
2022/04/20 00:19:42;;;;;;;3.50;1.80;;;6.10;88.60;;;;;;5048597;28;20463;-59
2022/04/20 00:22:08;;;;;;;3.38;1.80;;;6.10;88.50;;;;;;5028430;28;20083;-59
2022/04/20 00:24:34;;;;;;;4.03;1.63;;;6.20;89.80;;;;;;5048441;28;20064;-58
2022/04/20 00:26:59;;;;;;;5.65;1.95;;;6.20;88.70;;;;;;5027721;28;20033;-58
2022/04/20 00:29:24;;;;;;;4.38;2.13;;;6.20;90.30;;;;;;5048509;28;20408;-59
2022/04/20 00:31:50;;;;;;;3.30;2.00;;;6.20;88.80;;;;;;5027898;28;20029;-59
2022/04/20 00:34:15;;;;;;;4.10;2.10;;;6.20;90.50;;;;;;5048166;28;20551;-58
2022/04/20 00:36:41;;;;;;;4.22;1.90;;;6.20;89.80;;;;;;5027977;28;20056;-58
2022/04/20 00:39:06;;;;;;;2.38;1.33;;;6.20;89.90;;;;;;5048391;28;20021;-58
2022/04/20 00:41:32;;;;;;;5.47;2.50;;;6.20;89.30;;;;;;5028018;28;20396;-59
2022/04/20 00:43:59;;;;;;;3.17;1.80;;;6.20;89.90;;;;;;5047973;28;20035;-58
2022/04/20 00:46:26;;;;;;;5.90;1.83;;;6.10;90.10;;;;;;5027518;28;20048;-59
2022/04/20 00:48:52;;;;;;;4.22;1.60;;;6.10;90.40;;;;;;5048210;28;20029;-59
2022/04/20 00:51:18;;;;;;;2.42;1.80;;;6.10;91.20;;;;;;5037110;28;20453;-59
2022/04/20 00:53:43;;;;;;;6.07;2.45;;;6.00;90.80;;;;;;5029175;28;20040;-59
2022/04/20 00:56:09;;;;;;;2.53;1.77;;;6.00;90.70;;;;;;5045999;28;20060;-74
2022/04/20 00:58:38;;;;;;;4.28;1.90;;;6.00;91.90;;;;;;5029133;28;20034;-73
2022/04/20 01:01:03;;;;;;;7.93;2.72;;;6.00;91.80;;;;;;5039622;28;20027;-74
2022/04/20 01:03:29;;;;;;;3.95;2.28;;;6.00;91.30;;;;;;5029155;28;20124;-74
2022/04/20 01:05:54;;;;;;;3.80;1.70;;;6.00;91.70;;;;;;5045709;28;20025;-74
2022/04/20 01:08:20;;;;;;;2.95;1.70;;;6.00;91.60;;;;;;5029178;28;20029;-74
2022/04/20 01:10:45;;;;;;;2.70;1.85;;;5.90;91.70;;;;;;5046023;28;20040;-74
2022/04/20 01:13:11;;;;;;;2.28;1.67;;;6.00;91.90;;;;;;5048754;28;20025;-74
2022/04/20 01:15:36;;;;;;;4.65;2.00;;;5.90;92.10;;;;;;5031886;28;20029;-73
2022/04/20 01:18:13;;;;;;;6.78;2.30;;;6.00;92.40;;;;;;5048315;28;20017;-74
2022/04/20 01:20:39;;;;;;;4.18;1.98;;;6.00;93.30;;;;;;5032106;28;20020;-73
2022/04/20 01:23:05;;;;;;;2.95;1.63;;;6.00;93.10;;;;;;5048366;28;20017;-74
2022/04/20 01:25:30;;;;;;;2.67;1.80;;;6.00;93.80;;;;;;5031027;28;20029;-74
2022/04/20 01:27:56;;;;;;;5.57;2.15;;;6.00;93.30;;;;;;5048161;28;20033;-73
2022/04/20 01:30:22;;;;;;;7.80;2.20;;;5.90;94.30;;;;;;5029915;28;20048;-74
2022/04/20 01:32:47;;;;;;;3.92;1.58;;;5.90;95.50;;;;;;5048179;28;20025;-73
2022/04/20 01:35:12;;;;;;;4.05;1.90;;;5.90;94.40;;;;;;5027607;28;20106;-74
2022/04/20 01:37:38;;;;;;;3.00;1.80;;;5.90;94.20;;;;;;5047788;28;20021;-73
2022/04/20 01:40:05;;;;;;;5.35;2.10;;;5.90;93.90;;;;;;5027479;28;20111;-73
2022/04/20 01:42:31;;;;;;;5.25;2.22;;;5.90;94.70;;;;;;5048107;28;20083;-73
2022/04/20 01:44:56;;;;;;;3.53;1.75;;;5.90;94.80;;;;;;5028116;28;20501;-73
2022/04/20 01:47:22;;;;;;;3.17;1.75;;;5.90;95.50;;;;;;5008400;28;20025;-73
2022/04/20 01:49:47;;;;;;;3.45;1.67;;;5.90;97.40;;;;;;5041989;28;20171;-73
2022/04/20 01:52:13;;;;;;;3.85;2.05;;;5.90;97.10;;;;;;5026330;28;20685;-74
2022/04/20 01:54:38;;;;;;;4.35;1.90;;;5.90;96.60;;;;;;5046724;28;20032;-72
2022/04/20 01:57:05;;;;;;;3.45;1.98;;;5.90;96.80;;;;;;5026836;28;20378;-73
2022/04/20 01:59:30;;;;;;;4.65;2.03;;;5.90;98.10;;;;;;5037807;28;20040;-73
2022/04/20 02:04:40;;;;;;;5.55;2.05;;;5.90;98.60;;;;;;5012024;28;20049;-72
2022/04/20 02:07:06;;;;;;;4.50;2.05;;;5.90;98.80;;;;;;5031444;28;20408;-73
2022/04/20 02:09:31;;;;;;;4.15;2.30;;;5.90;99.90;;;;;;5051184;28;20281;-73
2022/04/20 02:11:56;;;;;;;3.85;2.00;;;5.80;98.20;;;;;;5030324;28;20055;-72
2022/04/20 02:14:22;;;;;;;5.22;2.17;;;5.80;99.90;;;;;;5050993;28;20025;-73
2022/04/20 02:16:47;;;;;;;5.68;2.35;;;5.80;99.90;;;;;;5030798;28;20025;-72
2022/04/20 02:19:13;;;;;;;5.95;2.95;;;5.70;99.90;;;;;;5051092;28;20647;-73
2022/04/20 02:21:38;;;;;;;5.40;3.25;;;5.70;99.90;;;;;;5030207;28;20030;-72
2022/04/20 02:24:04;;;;;;;6.30;2.42;;;5.70;99.90;;;;;;5050933;28;20037;-72
2022/04/20 02:26:30;;;;;;;4.00;2.38;;;5.70;99.90;;;;;;5030314;28;20075;-73
2022/04/20 02:28:56;;;;;;;4.35;2.38;;;5.70;99.90;;;;;;5050622;28;20524;-73
2022/04/20 02:31:21;;;;;;;3.75;1.85;;;5.70;99.90;;;;;;5030162;28;20095;-73
2022/04/20 02:33:47;;;;;;;4.90;2.78;;;5.80;99.90;;;;;;5050657;28;20067;-73
2022/04/20 02:36:13;;;;;;;6.03;2.80;;;5.80;99.90;;;;;;5040385;28;20523;-73
2022/04/20 02:38:39;;;;;;;6.10;2.88;;;5.90;99.90;;;;;;5031364;28;20033;-72
2022/04/20 02:41:05;;;;;;;5.47;2.53;;;5.90;99.90;;;;;;5048929;28;20142;-73
2022/04/20 02:43:31;;;;;;;8.18;2.90;;;5.90;99.90;;;;;;5031973;28;20040;-73
2022/04/20 02:45:57;;;;;;;7.78;3.25;;;6.00;99.90;;;;;;5048263;28;20044;-72
2022/04/20 02:48:22;;;;;;;5.22;2.78;;;6.00;99.90;;;;;;5031531;28;20436;-73
2022/04/20 02:50:48;;;;;;;6.35;2.70;;;6.00;99.90;;;;;;5048310;28;20041;-72
2022/04/20 02:53:13;;;;;;;6.95;3.40;;;6.00;99.90;;;;;;5051067;28;20025;-73
2022/04/20 02:55:42;;;;;;;7.07;2.70;;;6.10;99.90;;;;;;5034839;28;20066;-72
2022/04/20 02:58:07;;;;;;;6.32;3.10;;;6.10;99.90;;;;;;5050949;28;20013;-73
2022/04/20 03:00:33;;;;;;;5.38;3.47;;;6.20;99.90;;;;;;5027574;28;20624;-71
2022/04/20 03:02:58;;;;;;;7.25;3.00;;;6.20;99.90;;;;;;5050644;28;20021;-73
2022/04/20 03:05:24;;;;;;;10.90;3.88;;;6.20;99.90;;;;;;5033093;28;20484;-72
2022/04/20 03:07:49;;;;;;;8.57;3.47;;;6.20;99.90;;;;;;5050671;28;20013;-72
2022/04/20 03:10:15;;;;;;;5.60;3.50;;;6.30;99.90;;;;;;5031558;28;20056;-59
2022/04/20 03:12:40;;;;;;;8.05;4.25;;;6.30;99.90;;;;;;5049960;28;20091;-59
2022/04/20 03:15:06;;;;;;;7.97;3.97;;;6.30;99.90;;;;;;5030430;28;20345;-59
2022/04/20 03:17:32;;;;;;;7.35;3.58;;;6.30;99.90;;;;;;5050658;28;20025;-58
2022/04/20 03:19:57;;;;;;;5.97;4.00;;;6.40;99.90;;;;;;5030739;28;20022;-59
2022/04/20 03:22:23;;;;;;;6.85;3.58;;;6.40;99.90;;;;;;5048395;28;20079;-58
2022/04/20 03:24:48;;;;;;;13.75;4.63;;;6.40;99.90;;;;;;5031095;28;20536;-59
2022/04/20 03:27:14;;;;;;;5.88;4.13;;;6.40;99.90;;;;;;5029403;28;20025;-59
2022/04/20 03:29:41;;;;;;;7.13;3.80;;;6.40;99.90;;;;;;5049357;28;20044;-58
2022/04/20 03:32:12;;;;;;;8.35;4.13;;;6.40;99.90;;;;;;5028893;28;20555;-59
2022/04/20 03:34:39;;;;;;;6.82;3.72;;;6.50;99.90;;;;;;5049540;28;20031;-59
2022/04/20 03:37:05;;;;;;;7.20;3.97;;;6.40;99.90;;;;;;5028976;28;20029;-59
2022/04/20 03:39:32;;;;;;;7.95;4.25;;;6.50;99.90;;;;;;5049862;28;20276;-59
2022/04/20 03:41:57;;;;;;;8.55;3.92;;;6.50;99.90;;;;;;5028484;28;20095;-59
2022/04/20 03:44:23;;;;;;;5.88;3.65;;;6.50;99.90;;;;;;5049178;28;20045;-59
2022/04/20 03:46:49;;;;;;;10.10;5.10;;;6.50;99.90;;;;;;5028741;28;20036;-59
2022/04/20 03:49:14;;;;;;;9.00;4.75;;;6.50;99.90;;;;;;5048680;28;20021;-59
2022/04/20 03:51:40;;;;;;;6.63;3.63;;;6.50;99.90;;;;;;5027986;28;20401;-59
2022/04/20 03:54:06;;;;;;;13.00;5.85;;;6.50;99.90;;;;;;5049198;28;20029;-59
2022/04/20 03:57:03;;;;;;;8.95;4.22;;;6.50;99.90;;;;;;5028727;28;20025;-58
2022/04/20 03:59:17;;;;;;;6.97;4.43;;;6.50;99.90;;;;;;5008244;28;20322;-59
2022/04/20 04:01:42;;;;;;;6.43;4.65;;;6.50;99.90;;;;;;5030312;28;20041;-59
2022/04/20 04:04:08;;;;;;;10.30;4.72;;;6.50;99.90;;;;;;5048966;28;20091;-59
2022/04/20 04:06:33;;;;;;;7.25;4.43;;;6.50;99.90;;;;;;5028628;28;20030;-58
2022/04/20 04:08:59;;;;;;;6.80;4.40;;;6.50;99.90;;;;;;5048595;28;20029;-58
2022/04/20 04:11:25;;;;;;;8.57;5.03;;;6.50;99.90;;;;;;5028402;28;20031;-59
2022/04/20 04:13:50;;;;;;;6.18;4.18;;;6.50;99.90;;;;;;5048787;28;20123;-57
2022/04/20 04:16:15;;;;;;;9.63;4.35;;;6.50;99.90;;;;;;5038490;28;20048;-59
2022/04/20 04:18:41;;;;;;;8.65;4.75;;;6.50;99.90;;;;;;5030288;28;20393;-59
2022/04/20 04:21:06;;;;;;;12.27;5.43;;;6.50;99.90;;;;;;5047108;28;20021;-58
2022/04/20 04:23:32;;;;;;;7.65;4.78;;;6.50;99.90;;;;;;5030221;28;20061;-58
2022/04/20 04:25:57;;;;;;;8.88;5.47;;;6.50;99.90;;;;;;5045416;28;20033;-59
2022/04/20 04:28:23;;;;;;;6.82;4.10;;;6.50;99.90;;;;;;5029960;28;20061;-59
2022/04/20 04:30:48;;;;;;;9.23;4.65;;;6.60;99.90;;;;;;5046559;28;20021;-59
2022/04/20 04:33:14;;;;;;;7.53;4.40;;;6.70;99.90;;;;;;5049229;28;20570;-59
2022/04/20 04:35:40;;;;;;;7.80;4.55;;;6.80;99.90;;;;;;5033073;28;20032;-59
2022/04/20 04:38:05;;;;;;;7.22;4.38;;;6.90;99.90;;;;;;5049378;28;20032;-59
2022/04/20 04:40:31;;;;;;;7.72;4.22;;;7.00;99.90;;;;;;5032188;28;20546;-59
2022/04/20 04:42:56;;;;;;;10.68;4.90;;;7.20;99.90;;;;;;5048719;28;20419;-59
2022/04/20 04:50:50;;;;;;;7.45;4.63;;;8.00;99.90;;;;;;5033439;28;20064;-59
2022/04/20 04:53:16;;;;;;;6.93;4.85;;;8.80;99.90;;;;;;5047808;28;20025;-59
2022/04/20 04:55:41;;;;;;;7.70;4.75;;;10.20;97.70;;;;;;5033495;28;20418;-59
2022/04/20 04:58:07;;;;;;;10.15;4.65;;;11.60;89.00;;;;;;5048766;28;20021;-59
2022/04/20 05:00:33;;;;;;;8.82;4.35;;;12.50;74.20;;;;;;5024777;28;20024;-59
2022/04/20 05:02:58;;;;;;;6.00;4.22;;;13.40;66.10;;;;;;5048578;28;20017;-59
2022/04/20 05:05:24;;;;;;;7.18;4.03;;;14.10;58.90;;;;;;5030569;28;20041;-59
2022/04/20 05:07:54;;;;;;;6.28;3.95;;;14.70;55.50;;;;;;5048369;28;20017;-59
2022/04/20 05:10:23;;;;;;;6.22;3.88;;;15.40;49.70;;;;;;5012511;28;20036;-59
2022/04/20 05:12:48;;;;;;;4.10;3.33;;;16.20;46.20;;;;;;5048849;28;20032;-59
2022/04/20 05:15:14;;;;;;;6.30;3.83;;;16.90;42.80;;;;;;5029078;28;20033;-59
2022/04/20 05:17:39;;;;;;;5.60;3.10;;;17.30;39.80;;;;;;5048117;28;20039;-59
2022/04/20 05:20:06;;;;;;;6.32;3.58;;;17.40;37.00;;;;;;5027968;28;20109;-59
2022/04/20 05:22:32;;;;;;;5.68;3.78;;;17.80;35.30;;;;;;5048300;28;20024;-59
2022/04/20 05:24:57;;;;;;;5.43;3.22;;;17.50;35.10;;;;;;5028600;28;20042;-59
2022/04/20 05:27:23;;;;;;;5.53;3.75;;;17.60;35.30;;;;;;5046090;28;20543;-59
2022/04/20 05:29:48;;;;;;;5.20;3.60;;;17.90;34.00;;;;;;5028926;28;20029;-59
2022/04/20 05:32:14;;;;;;;7.28;4.25;;;16.30;33.90;;;;;;5027090;28;20029;-59
2022/04/20 05:34:39;;;;;;;9.05;4.53;;;16.40;36.00;;;;;;5047299;28;20060;-59
2022/04/20 05:42:33;;;;;;;3.28;2.80;;;19.10;26.90;;;;;;5008777;28;20052;-59
2022/04/20 05:44:59;;;;;;;7.20;4.10;;;17.30;27.70;;;;;;5046031;28;20416;-59
2022/04/20 05:47:24;;;;;;;4.85;3.17;;;15.80;32.90;;;;;;5046263;28;20021;-59
2022/04/20 05:49:50;;;;;;;5.78;3.53;;;14.80;38.80;;;;;;5033268;28;20043;-59
2022/04/20 05:52:16;;;;;;;5.25;3.83;;;14.20;42.10;;;;;;5027645;28;20053;-59
2022/04/20 05:54:41;;;;;;;7.03;4.00;;;13.70;46.00;;;;;;5047175;28;20093;-59
2022/04/20 05:57:07;;;;;;;5.85;3.80;;;13.10;48.20;;;;;;5026850;28;20029;-59
2022/04/20 05:59:32;;;;;;;4.18;3.00;;;12.50;51.50;;;;;;5039891;28;20386;-59
2022/04/20 06:01:58;;;;;;;5.55;4.25;;;12.00;54.90;;;;;;5025834;28;20077;-59
2022/04/20 06:04:24;;;;;;;6.40;4.60;;;11.50;57.60;;;;;;5046972;28;20044;-59
2022/04/20 06:06:49;;;;;;;4.85;3.58;;;11.20;60.00;;;;;;5026586;28;20495;-59
2022/04/20 06:09:15;;;;;;;6.15;4.05;;;11.40;59.90;;;;;;5047121;28;20112;-59
2022/04/20 06:11:41;;;;;;;6.38;4.03;;;11.60;59.40;;;;;;5026433;28;20025;-59
2022/04/20 06:14:07;;;;;;;6.07;4.60;;;11.70;58.00;;;;;;5047280;28;20154;-59
2022/04/20 06:16:32;;;;;;;5.47;3.90;;;11.80;56.80;;;;;;5026567;28;20060;-59
2022/04/20 06:18:58;;;;;;;6.20;3.55;;;12.30;53.00;;;;;;5046563;28;20029;-59
2022/04/20 06:21:23;;;;;;;5.03;4.05;;;12.00;53.00;;;;;;5026713;28;20658;-59
2022/04/20 06:23:49;;;;;;;6.00;3.40;;;11.80;54.00;;;;;;5046785;28;20017;-59
2022/04/20 06:26:14;;;;;;;6.85;4.30;;;11.50;56.00;;;;;;5036502;28;20041;-59
2022/04/20 06:28:40;;;;;;;8.35;4.20;;;11.30;57.00;;;;;;5028206;28;20022;-59
2022/04/20 06:31:05;;;;;;;4.63;3.70;;;11.00;58.30;;;;;;5045109;28;20029;-59
2022/04/20 06:33:31;;;;;;;8.85;5.32;;;10.70;60.30;;;;;;5028172;28;20029;-59
2022/04/20 06:36:00;;;;;;;5.88;4.05;;;10.50;62.20;;;;;;5044616;28;20032;-59
2022/04/20 06:38:28;;;;;;;6.72;4.15;;;10.30;64.20;;;;;;5027904;28;20437;-59
2022/04/20 06:40:54;;;;;;;6.00;4.03;;;10.10;66.70;;;;;;5045090;28;20108;-58
2022/04/20 06:43:22;;;;;;;6.30;4.07;;;10.00;67.70;;;;;;5047492;28;20096;-59
2022/04/20 06:45:48;;;;;;;8.25;4.85;;;9.80;68.50;;;;;;5032485;28;20064;-59
2022/04/20 06:48:13;;;;;;;5.85;3.80;;;9.70;70.20;;;;;;5048439;28;20060;-59
2022/04/20 06:50:42;;;;;;;4.10;3.22;;;9.70;71.60;;;;;;5034690;28;20079;-59
2022/04/20 06:58:36;;;;;;;6.35;4.22;;;9.40;75.90;;;;;;5050642;28;20195;-59
2022/04/20 07:01:07;;;;;;;5.93;3.78;;;9.40;74.10;;;;;;5034600;28;20518;-64
2022/04/20 07:03:36;;;;;;;5.75;3.85;;;9.30;74.60;;;;;;5011434;28;20109;-64
2022/04/20 07:06:03;;;;;;;5.10;3.95;;;9.20;80.50;;;;;;5048382;28;20041;-64
2022/04/20 07:08:30;;;;;;;5.90;3.72;;;9.10;80.80;;;;;;5031131;28;20025;-64
2022/04/20 07:10:56;;;;;;;7.97;3.95;;;9.10;79.80;;;;;;5048141;28;20191;-59
2022/04/20 07:13:22;;;;;;;5.25;3.75;;;9.10;77.70;;;;;;5031089;28;20108;-59
2022/04/20 07:15:48;;;;;;;5.10;3.90;;;9.10;79.40;;;;;;5048199;28;20025;-60
2022/04/20 07:18:14;;;;;;;10.75;6.00;;;9.10;79.20;;;;;;5050595;28;20036;-59
2022/04/20 07:20:40;;;;;;;8.98;5.40;;;9.20;77.50;;;;;;5034508;28;20025;-59
2022/04/20 07:23:06;;;;;;;11.48;5.43;;;9.30;77.40;;;;;;5050538;28;20032;-59
2022/04/20 07:25:32;;;;;;;8.63;4.95;;;9.40;75.60;;;;;;5033358;28;20524;-60
2022/04/20 07:27:58;;;;;;;6.38;4.07;;;9.60;75.10;;;;;;5050076;28;20477;-60
2022/04/20 07:30:26;;;;;;;7.00;4.78;;;9.70;73.10;;;;;;5032321;28;20131;-60
2022/04/20 07:32:52;;;;;;;4.65;3.85;;;9.70;70.70;;;;;;5050263;28;20032;-59
2022/04/20 07:35:17;;;;;;;7.97;4.40;;;9.90;69.60;;;;;;5031148;28;20029;-60
2022/04/20 07:37:43;;;;;;;4.90;3.58;;;10.20;67.70;;;;;;5050088;28;20036;-59
2022/04/20 07:40:09;;;;;;;5.68;3.60;;;10.50;65.40;;;;;;5030071;28;20022;-60
2022/04/20 07:42:36;;;;;;;4.72;3.42;;;10.80;62.10;;;;;;5049989;28;20444;-59
2022/04/20 07:45:02;;;;;;;4.88;3.45;;;11.10;58.80;;;;;;5028603;28;20046;-59
2022/04/20 07:47:28;;;;;;;5.03;3.70;;;11.60;55.70;;;;;;5050133;28;20017;-59
2022/04/20 07:52:40;;;;;;;6.22;3.30;;;12.60;50.10;;;;;;5029973;28;20295;-59
2022/04/20 07:55:14;;;;;;;4.80;3.22;;;12.90;46.40;;;;;;5047494;28;20824;-59
2022/04/20 07:57:42;;;;;;;3.72;2.50;;;13.40;45.10;;;;;;5049719;28;20017;-59
2022/04/20 08:00:10;;;;;;;5.07;2.70;;;13.80;42.30;;;;;;5028554;28;20503;-59
2022/04/20 08:02:35;;;;;;;7.80;2.97;;;14.00;39.80;;;;;;5029759;28;20410;-59
2022/04/20 08:05:01;;;;;;;3.65;2.85;;;14.20;33.30;;;;;;5046838;28;20425;-58
2022/04/20 08:07:26;;;;;;;4.00;3.25;;;14.20;34.70;;;;;;5048519;28;20028;-59
2022/04/20 08:09:53;;;;;;;5.32;3.30;;;14.00;33.80;;;;;;5030068;28;20025;-58
2022/04/20 08:12:18;;;;;;;3.00;2.28;;;14.30;33.70;;;;;;5027913;28;20033;-59
2022/04/20 08:14:44;;;;;;;3.80;2.47;;;14.60;30.60;;;;;;5048760;28;20037;-59
2022/04/20 08:17:09;;;;;;;3.53;2.60;;;14.90;31.70;;;;;;5024867;28;20026;-59
2022/04/20 08:19:35;;;;;;;5.07;3.15;;;14.80;30.50;;;;;;5048528;28;20025;-59
2022/04/20 08:22:00;;;;;;;5.10;2.58;;;14.50;29.70;;;;;;5027981;28;20025;-59
2022/04/20 08:24:26;;;;;;;5.78;2.60;;;14.10;30.70;;;;;;5048556;28;20044;-59
2022/04/20 08:26:52;;;;;;;4.97;2.28;;;13.80;29.90;;;;;;5028356;28;20033;-59
2022/04/20 08:29:17;;;;;;;5.35;2.67;;;13.50;32.10;;;;;;5048385;28;20112;-59
2022/04/20 08:31:43;;;;;;;6.18;2.40;;;13.20;31.00;;;;;;5028218;28;20033;-59
2022/04/20 08:34:08;;;;;;;3.92;2.33;;;13.00;33.80;;;;;;5048365;28;20116;-59
2022/04/20 08:36:34;;;;;;;4.85;2.17;;;12.80;35.10;;;;;;5027763;28;20438;-59
2022/04/20 08:39:00;;;;;;;4.05;2.50;;;12.60;36.10;;;;;;5048039;28;20162;-59
2022/04/20 08:41:26;;;;;;;3.10;2.42;;;12.40;37.50;;;;;;5027836;28;20038;-59
2022/04/20 08:43:52;;;;;;;4.65;2.92;;;12.10;39.00;;;;;;5048103;28;20031;-59
2022/04/20 08:46:18;;;;;;;4.45;3.00;;;11.80;41.40;;;;;;5037973;28;20044;-59
2022/04/20 08:48:43;;;;;;;4.95;3.20;;;11.70;44.20;;;;;;5029399;28;20074;-59
2022/04/20 08:51:09;;;;;;;4.57;2.63;;;11.60;45.50;;;;;;5046004;28;20574;-59
2022/04/20 08:53:36;;;;;;;4.03;2.42;;;11.70;47.70;;;;;;5029231;28;20025;-59
2022/04/20 08:58:49;;;;;;;5.53;2.83;;;11.60;51.90;;;;;;5049014;28;20447;-59
2022/04/20 09:01:17;;;;;;;5.85;2.88;;;11.50;54.80;;;;;;5034181;28;20030;-63
2022/04/20 09:03:47;;;;;;;5.70;3.17;;;11.40;55.40;;;;;;5028751;28;20022;-63
2022/04/20 09:06:14;;;;;;;5.60;2.88;;;11.30;58.50;;;;;;5025510;28;20037;-63
2022/04/20 09:08:40;;;;;;;3.55;2.60;;;11.20;60.40;;;;;;5028471;28;20025;-63
2022/04/20 09:11:05;;;;;;;3.78;2.25;;;11.40;61.20;;;;;;5025265;28;20034;-63
2022/04/20 09:13:38;;;;;;;3.17;2.10;;;11.50;61.20;;;;;;5028641;28;20021;-64
2022/04/20 09:16:08;;;;;;;4.95;2.97;;;11.70;62.10;;;;;;5026810;28;20033;-64
2022/04/20 09:18:35;;;;;;;4.18;2.40;;;11.70;62.40;;;;;;5028678;28;20075;-64
2022/04/20 09:21:07;;;;;;;2.45;2.00;;;11.70;65.30;;;;;;5026751;28;20388;-63
2022/04/20 09:23:34;;;;;;;5.45;2.30;;;11.80;65.40;;;;;;5028505;28;20014;-64
2022/04/20 09:26:08;;;;;;;3.88;2.90;;;11.80;63.90;;;;;;5026203;28;20098;-64
2022/04/20 09:28:34;;;;;;;3.63;2.42;;;11.80;65.20;;;;;;5028409;28;20025;-63
2022/04/20 09:30:59;;;;;;;2.97;2.60;;;11.80;65.40;;;;;;5026396;28;20021;-64
2022/04/20 09:33:42;;;;;;;4.07;2.67;;;11.70;66.10;;;;;;5026993;28;20052;-64
2022/04/20 09:36:08;;;;;;;4.45;2.42;;;11.70;66.50;;;;;;5026351;28;20404;-64
2022/04/20 09:38:37;;;;;;;3.58;2.80;;;11.70;66.20;;;;;;5028221;28;20065;-63
2022/04/20 09:41:10;;;;;;;5.43;2.38;;;11.70;68.10;;;;;;5026297;28;20478;-64
2022/04/20 09:43:36;;;;;;;6.43;2.05;;;11.70;70.80;;;;;;5028004;28;20464;-64
2022/04/20 09:49:08;;;;;;;3.03;2.03;;;12.00;72.10;;;;;;5028388;28;20028;-64
2022/04/20 09:51:41;;;;;;;2.80;2.17;;;12.20;70.70;;;;;;5026347;28;20144;-63
2022/04/20 09:54:27;;;;;;;3.45;2.30;;;12.10;73.90;;;;;;5028290;28;20188;-63
2022/04/20 09:57:12;;;;;;;3.45;2.08;;;12.10;74.70;;;;;;5026201;28;20107;-64
2022/04/20 09:59:57;;;;;;;2.70;2.03;;;12.20;77.50;;;;;;5047280;28;20033;-63
2022/04/20 10:02:23;;;;;;;4.03;2.47;;;12.20;76.60;;;;;;5031951;28;20029;-64
2022/04/20 10:04:49;;;;;;;2.90;2.45;;;12.20;74.50;;;;;;5028367;28;20064;-64
2022/04/20 10:07:15;;;;;;;3.15;2.42;;;12.20;75.20;;;;;;5031504;28;20033;-64
2022/04/20 10:09:41;;;;;;;4.57;2.38;;;12.30;75.40;;;;;;5047380;28;20047;-64
2022/04/20 10:12:07;;;;;;;5.75;2.88;;;12.20;75.40;;;;;;5026738;28;20366;-64
2022/04/20 10:17:24;;;;;;;7.90;2.03;;;11.90;79.30;;;;;;5020697;28;20037;-63
2022/04/20 10:19:51;;;;;;;5.25;2.65;;;11.80;81.60;;;;;;5028085;28;20037;-64
2022/04/20 10:22:18;;;;;;;3.63;2.17;;;11.70;82.20;;;;;;5030814;28;20185;-64
2022/04/20 10:24:47;;;;;;;3.00;2.15;;;11.60;82.80;;;;;;5050487;28;20048;-64
2022/04/20 10:27:21;;;;;;;2.42;2.00;;;11.50;84.40;;;;;;5030122;28;20109;-64
2022/04/20 10:29:54;;;;;;;2.83;2.33;;;11.60;86.40;;;;;;5031631;28;20397;-64
2022/04/20 10:32:25;;;;;;;4.57;2.70;;;11.60;87.10;;;;;;5029768;28;20029;-64
2022/04/20 10:34:51;;;;;;;2.95;1.90;;;11.70;88.00;;;;;;5050901;28;20029;-64
2022/04/20 10:37:20;;;;;;;4.97;2.67;;;11.70;86.20;;;;;;5029680;28;20047;-62
2022/04/20 10:39:47;;;;;;;2.55;2.13;;;11.70;88.10;;;;;;5050932;28;20024;-63
2022/04/20 10:42:13;;;;;;;3.38;2.72;;;11.70;88.20;;;;;;5029839;28;20029;-63
2022/04/20 10:44:55;;;;;;;3.85;2.58;;;11.70;87.80;;;;;;5050369;28;20037;-62
2022/04/20 10:47:23;;;;;;;3.42;2.50;;;11.70;90.60;;;;;;5029471;28;20132;-63
2022/04/20 10:49:53;;;;;;;4.53;2.42;;;11.80;91.70;;;;;;5045609;28;20087;-63
2022/04/20 10:52:23;;;;;;;6.22;2.33;;;11.80;90.80;;;;;;5043377;28;20029;-63
2022/04/20 10:54:52;;;;;;;2.75;2.03;;;12.00;90.60;;;;;;5031408;28;20507;-63
2022/04/20 10:57:17;;;;;;;2.90;2.17;;;12.00;90.60;;;;;;5034340;28;20026;-63
2022/04/20 10:59:43;;;;;;;3.63;2.22;;;12.10;90.20;;;;;;5050112;28;20029;-63
2022/04/20 11:02:12;;;;;;;5.65;3.05;;;12.10;90.70;;;;;;5033267;28;20516;-63
2022/04/20 11:04:50;;;;;;;5.00;2.63;;;12.20;90.00;;;;;;5030819;28;20064;-63
2022/04/20 11:07:32;;;;;;;3.38;2.17;;;12.20;90.60;;;;;;5023215;28;20141;-63
2022/04/20 11:10:05;;;;;;;4.30;2.10;;;12.20;90.30;;;;;;5010786;28;20026;-63
2022/04/20 11:18:39;;;;;;;3.00;2.33;;;12.30;88.50;;;;;;5030473;28;20511;-63
2022/04/20 11:21:06;;;;;;;3.22;2.53;;;12.40;85.50;;;;;;5017726;28;20124;-63
2022/04/20 11:23:54;;;;;;;2.00;1.80;;;12.60;83.60;;;;;;5050546;28;20021;-63
2022/04/20 11:26:27;;;;;;;4.30;2.40;;;12.70;82.80;;;;;;5035474;28;20087;-63
2022/04/20 11:28:54;;;;;;;3.50;2.25;;;12.90;78.40;;;;;;5050440;28;20444;-63
2022/04/20 11:31:20;;;;;;;2.97;1.95;;;13.00;75.30;;;;;;5010980;28;20033;-63
2022/04/20 11:33:46;;;;;;;4.05;1.75;;;13.10;74.00;;;;;;5029947;28;20362;-63
2022/04/20 11:36:13;;;;;;;2.95;2.10;;;13.20;73.60;;;;;;5047735;28;20102;-63
2022/04/20 11:38:44;;;;;;;3.85;2.20;;;13.50;71.20;;;;;;5049993;28;20033;-63
2022/04/20 11:41:11;;;;;;;4.43;2.20;;;13.70;67.00;;;;;;5033462;28;20087;-63
2022/04/20 11:43:38;;;;;;;4.03;2.30;;;13.80;65.70;;;;;;5049825;28;20443;-63
2022/04/20 11:46:07;;;;;;;2.67;2.08;;;14.00;64.40;;;;;;5032921;28;20033;-63
2022/04/20 11:48:35;;;;;;;4.95;2.67;;;14.40;63.10;;;;;;5050183;28;20029;-63
2022/04/20 11:51:02;;;;;;;5.88;2.55;;;14.40;58.40;;;;;;5031865;28;20057;-63
2022/04/20 11:53:36;;;;;;;7.93;2.40;;;14.50;60.20;;;;;;5049921;28;20027;-64
2022/04/20 11:56:04;;;;;;;3.72;2.20;;;14.70;58.90;;;;;;5032032;28;20033;-63
2022/04/20 11:58:30;;;;;;;2.72;2.22;;;14.70;56.30;;;;;;5050060;28;20051;-64
2022/04/20 12:01:03;;;;;;;4.65;2.45;;;14.70;57.50;;;;;;5030993;28;20032;-63
2022/04/20 12:03:33;;;;;;;4.30;2.03;;;14.80;57.30;;;;;;5050087;28;20025;-64
2022/04/20 12:06:03;;;;;;;2.05;1.77;;;14.80;55.80;;;;;;5030872;28;20037;-63
2022/04/20 12:08:31;;;;;;;2.78;1.83;;;14.80;53.60;;;;;;5048380;28;20396;-63
2022/04/20 12:11:00;;;;;;;2.90;1.95;;;14.70;49.30;;;;;;5030959;28;20028;-63
2022/04/20 12:13:28;;;;;;;3.50;2.15;;;14.80;51.60;;;;;;5049725;28;20021;-63
2022/04/20 12:16:05;;;;;;;2.30;1.77;;;14.90;51.10;;;;;;5030942;28;20290;-61
2022/04/20 12:18:35;;;;;;;2.70;1.92;;;15.00;46.70;;;;;;5049756;28;20029;-61
2022/04/20 12:21:01;;;;;;;3.25;2.25;;;15.10;48.20;;;;;;5015220;28;20523;-61
2022/04/20 12:23:34;;;;;;;5.03;1.83;;;15.10;47.30;;;;;;5049560;28;20033;-61
2022/04/20 12:26:03;;;;;;;5.63;2.40;;;15.20;45.50;;;;;;5030741;28;20041;-61
2022/04/20 12:28:36;;;;;;;5.90;2.42;;;15.10;46.40;;;;;;5049289;28;20013;-61
2022/04/20 12:31:02;;;;;;;3.45;2.30;;;15.00;43.90;;;;;;5031612;28;20123;-63
2022/04/20 12:33:28;;;;;;;4.65;2.28;;;15.00;45.70;;;;;;5049211;28;20447;-62
2022/04/20 12:36:06;;;;;;;5.00;2.65;;;15.20;45.00;;;;;;5030450;28;20041;-63
2022/04/20 12:38:45;;;;;;;6.32;2.60;;;14.90;42.40;;;;;;5049442;28;20419;-62
2022/04/20 12:41:36;;;;;;;5.88;2.20;;;14.70;42.50;;;;;;5017872;28;20033;-63
2022/04/20 12:44:21;;;;;;;3.75;2.70;;;14.70;43.60;;;;;;5029388;28;20413;-62
2022/04/20 12:46:47;;;;;;;2.42;1.95;;;14.80;44.70;;;;;;5026877;28;20116;-62
2022/04/20 12:49:29;;;;;;;3.38;2.25;;;14.90;44.50;;;;;;5029271;28;20120;-62
2022/04/20 12:52:27;;;;;;;3.85;2.58;;;15.00;42.70;;;;;;5046816;28;20037;-62
2022/04/20 12:55:06;;;;;;;4.00;2.30;;;14.90;41.90;;;;;;5028900;28;20038;-62
2022/04/20 13:03:08;;;;;;;6.65;2.53;;;14.80;42.40;;;;;;5002123;28;20037;-59
2022/04/20 13:05:37;;;;;;;4.15;2.47;;;14.70;43.00;;;;;;5045746;28;20273;-58
2022/04/20 13:08:07;;;;;;;4.18;2.20;;;14.70;43.00;;;;;;5048764;28;20052;-59
2022/04/20 13:10:49;;;;;;;3.13;2.28;;;14.80;43.00;;;;;;5028472;28;20034;-62
2022/04/20 13:13:15;;;;;;;3.00;1.88;;;14.90;42.80;;;;;;5028649;28;20135;-65
2022/04/20 13:15:41;;;;;;;4.43;2.17;;;15.00;42.20;;;;;;5045744;28;20040;-65
2022/04/20 13:18:09;;;;;;;3.47;2.17;;;15.10;41.00;;;;;;5048457;28;20028;-66
2022/04/20 13:20:35;;;;;;;2.75;1.90;;;15.20;40.20;;;;;;5026726;28;20026;-65
2022/04/20 13:23:00;;;;;;;5.15;2.33;;;15.20;39.50;;;;;;5048142;28;20358;-66
2022/04/20 13:28:11;;;;;;;3.30;2.08;;;15.20;37.70;;;;;;5008992;28;20130;-66
2022/04/20 13:30:39;;;;;;;2.88;2.00;;;15.30;38.60;;;;;;5044917;28;20036;-65
2022/04/20 13:33:07;;;;;;;5.13;2.30;;;15.40;38.50;;;;;;5048338;28;20370;-66
2022/04/20 13:35:34;;;;;;;2.15;1.70;;;15.40;37.90;;;;;;5026587;28;20030;-65